Terminal Aerodrome Forecast
Issued by NWS

Home | Current Version | Previous Version | Graphics & Text | Print | Product List | Glossary On
Versions: 1 2 3 4 5 6 7 8 9 10 11 12 13 14 15 16
000
FTUS43 KICT 301800 AAA
TAFRSL
TAF AMD
KRSL 301838Z 3019/0118 19013G19KT P6SM VCSH BKN060
     FM302300 17011KT P6SM VCTS BKN060CB
     FM010600 17008KT P6SM VCSH BKN060
     FM011000 18008KT P6SM SCT060=

USA.gov is the U.S. government's official web portal to all federal, state and local government web resources and services.